createdAt,value
2023-04-17T00:00:09.584Z,10.66
2023-04-17T00:02:12.490Z,10.59
2023-04-17T00:04:15.512Z,10.57
2023-04-17T00:06:18.977Z,10.65
2023-04-17T00:08:23.243Z,10.64
2023-04-17T00:10:26.401Z,10.55
2023-04-17T00:12:29.220Z,10.55
2023-04-17T00:14:32.024Z,10.55
2023-04-17T00:16:34.896Z,10.57
2023-04-17T00:18:37.877Z,10.63
2023-04-17T00:20:40.694Z,10.67
2023-04-17T00:22:43.818Z,10.68
2023-04-17T00:24:47.947Z,10.65
2023-04-17T00:26:50.808Z,10.68
2023-04-17T00:28:53.604Z,10.60
2023-04-17T00:30:58.180Z,10.67
2023-04-17T00:33:01.124Z,10.67
2023-04-17T00:35:04.037Z,10.65
2023-04-17T00:37:06.921Z,10.59
2023-04-17T00:39:09.983Z,10.57
2023-04-17T00:41:14.454Z,10.55
2023-04-17T00:43:17.244Z,10.65
2023-04-17T00:45:21.553Z,10.45
2023-04-17T00:47:26.320Z,10.39
2023-04-17T00:49:30.345Z,10.41
2023-04-17T00:51:33.636Z,10.42
2023-04-17T00:53:36.979Z,10.46
2023-04-17T00:55:41.671Z,10.51
2023-04-17T00:57:48.157Z,10.52
2023-04-17T00:59:51.820Z,10.45
2023-04-17T01:01:54.786Z,10.42
2023-04-17T01:03:59.839Z,10.48
2023-04-17T01:06:03.572Z,10.50
2023-04-17T01:08:06.546Z,10.45
2023-04-17T01:10:10.329Z,10.46
2023-04-17T01:12:20.828Z,10.50
2023-04-17T01:14:25.161Z,10.44
2023-04-17T01:16:30.341Z,10.43
2023-04-17T01:18:33.233Z,10.43
2023-04-17T01:20:36.251Z,10.32
2023-04-17T01:22:39.132Z,10.32
2023-04-17T01:24:43.504Z,10.43
2023-04-17T01:26:46.580Z,10.39
2023-04-17T01:28:54.283Z,10.47
2023-04-17T01:30:57.222Z,10.53
2023-04-17T01:33:00.217Z,10.40
2023-04-17T01:35:03.433Z,10.38
2023-04-17T01:37:05.410Z,10.42
2023-04-17T01:39:08.375Z,10.37
2023-04-17T01:41:12.738Z,10.43
2023-04-17T01:43:15.855Z,10.47
2023-04-17T01:45:18.721Z,10.38
2023-04-17T01:47:21.609Z,10.38
2023-04-17T01:49:24.551Z,10.38
2023-04-17T01:51:27.895Z,10.38
2023-04-17T01:53:31.808Z,10.33
2023-04-17T01:55:34.761Z,10.39
2023-04-17T01:57:39.024Z,10.32
2023-04-17T01:59:41.935Z,10.38
2023-04-17T02:01:45.300Z,10.40
2023-04-17T02:03:48.343Z,10.34
2023-04-17T02:05:51.600Z,10.31
2023-04-17T02:07:54.366Z,10.26
2023-04-17T02:09:57.126Z,10.30
2023-04-17T02:11:59.872Z,10.34
2023-04-17T02:14:04.067Z,10.30
2023-04-17T02:16:07.848Z,10.35
2023-04-17T02:18:10.953Z,10.35
2023-04-17T02:20:14.068Z,10.34
2023-04-17T02:22:18.462Z,10.27
2023-04-17T02:24:21.293Z,10.32
2023-04-17T02:26:24.107Z,10.34
2023-04-17T02:28:27.031Z,10.34
2023-04-17T02:30:31.596Z,10.38
2023-04-17T02:32:35.456Z,10.40
2023-04-17T02:34:39.495Z,10.38
2023-04-17T02:36:42.456Z,10.33
2023-04-17T02:38:45.436Z,10.37
2023-04-17T02:40:49.541Z,10.38
2023-04-17T02:42:52.346Z,10.44
2023-04-17T02:44:55.198Z,10.35
2023-04-17T02:46:59.910Z,10.39
2023-04-17T02:49:06.256Z,10.34
2023-04-17T02:51:09.135Z,10.32
2023-04-17T02:53:12.539Z,10.29
2023-04-17T02:55:15.454Z,10.35
2023-04-17T02:57:19.171Z,10.40
2023-04-17T02:59:22.021Z,10.34
2023-04-17T03:01:24.930Z,10.38
2023-04-17T03:03:31.158Z,10.36
2023-04-17T03:05:34.115Z,10.39
2023-04-17T03:07:37.088Z,10.35
2023-04-17T03:09:40.001Z,10.41
2023-04-17T03:11:42.920Z,10.30
2023-04-17T03:13:45.938Z,10.34
2023-04-17T03:15:49.891Z,10.20
2023-04-17T03:17:52.954Z,10.26
2023-04-17T03:19:57.207Z,10.26
2023-04-17T03:22:00.173Z,10.29
2023-04-17T03:24:03.311Z,10.26
2023-04-17T03:26:06.860Z,10.24
2023-04-17T03:28:10.072Z,10.21
2023-04-17T03:30:13.650Z,10.26
2023-04-17T03:32:20.272Z,10.18
2023-04-17T03:34:23.463Z,10.20
2023-04-17T03:36:28.117Z,10.16
2023-04-17T03:38:30.916Z,10.12
2023-04-17T03:40:34.357Z,10.20
2023-04-17T03:42:37.297Z,10.14
2023-04-17T03:44:40.178Z,10.19
2023-04-17T03:46:43.118Z,10.11
2023-04-17T03:48:46.239Z,10.12
2023-04-17T03:50:50.337Z,10.08
2023-04-17T03:52:54.956Z,10.16
2023-04-17T03:54:59.946Z,10.05
2023-04-17T03:57:03.437Z,10.06
2023-04-17T03:59:07.227Z,10.05
2023-04-17T04:01:15.452Z,10.07
2023-04-17T04:03:35.677Z,10.03
2023-04-17T04:05:39.115Z,9.98
2023-04-17T04:07:43.236Z,10.07
2023-04-17T04:09:47.503Z,10.05
2023-04-17T04:11:50.333Z,10.05
2023-04-17T04:13:53.807Z,10.08
2023-04-17T04:15:56.963Z,10.03
2023-04-17T04:18:02.047Z,10.11
2023-04-17T04:20:06.265Z,10.09
2023-04-17T04:22:09.168Z,10.10
2023-04-17T04:24:20.296Z,10.14
2023-04-17T04:26:25.327Z,10.11
2023-04-17T04:28:47.504Z,10.06
2023-04-17T04:31:11.056Z,10.18
2023-04-17T04:33:16.503Z,10.02
2023-04-17T04:35:19.521Z,10.05
2023-04-17T04:37:29.880Z,10.08
2023-04-17T04:39:37.828Z,10.02
2023-04-17T04:41:46.260Z,10.01
2023-04-17T04:43:50.245Z,10.01
2023-04-17T04:45:53.492Z,9.99
2023-04-17T04:47:58.942Z,10.02
2023-04-17T04:50:02.000Z,10.07
2023-04-17T04:52:04.947Z,10.19
2023-04-17T04:54:09.603Z,10.12
2023-04-17T04:56:21.234Z,10.03
2023-04-17T04:58:29.370Z,10.06
2023-04-17T05:00:35.664Z,10.05
2023-04-17T05:02:38.513Z,10.13
2023-04-17T05:04:44.639Z,10.24
2023-04-17T05:06:47.720Z,10.37
2023-04-17T05:08:51.311Z,10.42
2023-04-17T05:10:54.271Z,10.44
2023-04-17T05:12:57.043Z,10.44
2023-04-17T05:15:01.305Z,10.50
2023-04-17T05:17:04.479Z,10.41
2023-04-17T05:19:07.275Z,10.42
2023-04-17T05:21:31.105Z,10.43
2023-04-17T05:23:34.176Z,10.19
2023-04-17T05:25:37.014Z,10.19
2023-04-17T05:27:42.463Z,10.24
2023-04-17T05:29:47.473Z,10.18
2023-04-17T05:31:51.969Z,10.21
2023-04-17T05:34:08.798Z,10.21
2023-04-17T05:36:11.646Z,10.30
2023-04-17T05:38:16.263Z,10.29
2023-04-17T05:40:19.198Z,10.29
2023-04-17T05:42:21.932Z,10.35
2023-04-17T05:44:25.275Z,10.41
2023-04-17T05:46:28.255Z,10.32
2023-04-17T05:48:32.552Z,10.36
2023-04-17T05:50:35.502Z,10.39
2023-04-17T05:52:39.647Z,10.35
2023-04-17T05:54:44.891Z,10.36
2023-04-17T05:56:49.583Z,10.43
2023-04-17T05:58:52.888Z,10.47
2023-04-17T06:00:56.032Z,10.53
2023-04-17T06:03:01.323Z,10.51
2023-04-17T06:05:11.733Z,10.65
2023-04-17T06:07:14.906Z,10.59
2023-04-17T06:09:17.690Z,10.63
2023-04-17T06:11:20.487Z,10.64
2023-04-17T06:13:24.388Z,10.72
2023-04-17T06:15:27.703Z,10.72
2023-04-17T06:17:31.000Z,10.69
2023-04-17T06:19:33.740Z,10.59
2023-04-17T06:21:37.934Z,10.63
2023-04-17T06:23:40.805Z,10.75
2023-04-17T06:25:44.119Z,10.94
2023-04-17T06:27:46.945Z,11.06
2023-04-17T06:29:49.939Z,11.25
2023-04-17T06:31:53.215Z,11.33
2023-04-17T06:33:57.006Z,11.22
2023-04-17T06:36:05.639Z,11.29
2023-04-17T06:38:31.764Z,11.22
2023-04-17T06:40:35.079Z,11.38
2023-04-17T06:42:41.225Z,11.37
2023-04-17T06:44:48.115Z,11.43
2023-04-17T06:46:52.625Z,11.43
2023-04-17T06:48:58.039Z,11.49
2023-04-17T06:51:00.806Z,11.48
2023-04-17T06:53:03.665Z,11.56
2023-04-17T06:55:08.786Z,11.52
2023-04-17T06:57:12.068Z,11.48
2023-04-17T06:59:14.855Z,11.43
2023-04-17T07:01:17.793Z,11.27
2023-04-17T07:03:20.787Z,11.18
2023-04-17T07:05:23.708Z,11.27
2023-04-17T07:07:26.927Z,11.39
2023-04-17T07:09:29.705Z,11.55
2023-04-17T07:11:33.816Z,11.50
2023-04-17T07:13:36.676Z,11.52
2023-04-17T07:15:39.531Z,11.65
2023-04-17T07:17:42.401Z,11.78
2023-04-17T07:19:45.261Z,11.70
2023-04-17T07:21:47.991Z,11.63
2023-04-17T07:23:50.793Z,11.67
2023-04-17T07:25:53.638Z,11.64
2023-04-17T07:27:57.815Z,11.62
2023-04-17T07:30:00.626Z,11.72
2023-04-17T07:32:03.827Z,11.82
2023-04-17T07:34:06.683Z,11.93
2023-04-17T07:36:11.249Z,12.13
2023-04-17T07:38:14.257Z,12.13
2023-04-17T07:40:17.170Z,12.09
2023-04-17T07:42:19.977Z,11.97
2023-04-17T07:44:24.104Z,12.05
2023-04-17T07:46:27.118Z,12.08
2023-04-17T07:48:29.926Z,12.30
2023-04-17T07:50:33.287Z,12.45
2023-04-17T07:52:36.129Z,12.54
2023-04-17T07:54:38.891Z,12.45
2023-04-17T07:56:41.668Z,12.50
2023-04-17T07:58:45.390Z,12.46
2023-04-17T08:00:51.908Z,12.35
2023-04-17T08:02:54.722Z,12.36
2023-04-17T08:04:57.863Z,12.40
2023-04-17T08:07:00.779Z,12.41
2023-04-17T08:09:05.251Z,12.44
2023-04-17T08:11:08.003Z,12.38
2023-04-17T08:13:10.835Z,12.36
2023-04-17T08:15:13.607Z,12.46
2023-04-17T08:17:22.740Z,12.49
2023-04-17T08:19:25.701Z,12.55
2023-04-17T08:21:28.517Z,12.50
2023-04-17T08:23:31.477Z,12.57
2023-04-17T08:25:34.275Z,12.70
2023-04-17T08:27:37.553Z,12.70
2023-04-17T08:29:40.970Z,12.73
2023-04-17T08:31:43.766Z,12.89
2023-04-17T08:33:47.994Z,12.92
2023-04-17T08:35:50.774Z,13.00
2023-04-17T08:37:55.501Z,13.02
2023-04-17T08:39:58.133Z,13.09
2023-04-17T08:42:05.421Z,12.98
2023-04-17T08:44:08.175Z,12.97
2023-04-17T08:46:11.358Z,13.10
2023-04-17T08:48:14.286Z,12.99
2023-04-17T08:50:19.882Z,13.08
2023-04-17T08:52:22.701Z,13.12
2023-04-17T08:54:25.574Z,13.19
2023-04-17T08:56:29.619Z,13.17
2023-04-17T08:58:33.562Z,13.36
2023-04-17T09:00:37.784Z,13.31
2023-04-17T09:02:53.882Z,13.24
2023-04-17T09:04:57.080Z,13.15
2023-04-17T09:07:02.038Z,13.31
2023-04-17T09:09:04.962Z,13.06
2023-04-17T09:11:18.091Z,13.00
2023-04-17T09:13:22.267Z,13.09
2023-04-17T09:15:25.063Z,13.10
2023-04-17T09:17:37.828Z,13.02
2023-04-17T09:20:07.263Z,12.99
2023-04-17T09:22:21.490Z,12.83
2023-04-17T09:24:34.342Z,12.89
2023-04-17T09:26:37.113Z,12.81
2023-04-17T09:28:40.539Z,12.86
2023-04-17T09:30:43.764Z,12.90
2023-04-17T09:32:46.649Z,13.00
2023-04-17T09:34:49.433Z,12.91
2023-04-17T09:36:55.155Z,12.99
2023-04-17T09:39:00.882Z,13.01
2023-04-17T09:41:03.689Z,12.81
2023-04-17T09:43:09.477Z,12.90
2023-04-17T09:45:20.215Z,12.85
2023-04-17T09:47:23.531Z,12.80
2023-04-17T09:49:33.736Z,12.90
2023-04-17T09:51:37.060Z,12.88
2023-04-17T09:53:39.887Z,13.00
2023-04-17T09:55:44.655Z,12.98
2023-04-17T09:57:47.648Z,12.84
2023-04-17T09:59:50.691Z,12.91
2023-04-17T10:01:54.423Z,12.92
2023-04-17T10:03:59.001Z,12.92
2023-04-17T10:06:02.056Z,13.09
2023-04-17T10:08:05.444Z,13.11
2023-04-17T10:10:10.912Z,13.09
2023-04-17T10:12:17.663Z,13.09
2023-04-17T10:14:25.338Z,13.17
2023-04-17T10:16:35.683Z,13.26
2023-04-17T10:18:38.525Z,13.42
2023-04-17T10:20:44.815Z,13.53
2023-04-17T10:22:54.051Z,13.55
2023-04-17T10:25:17.893Z,13.47
2023-04-17T10:27:47.186Z,13.48
2023-04-17T10:29:53.276Z,13.50
2023-04-17T10:32:25.813Z,13.45
2023-04-17T10:34:46.894Z,13.25
2023-04-17T10:36:50.571Z,13.26
2023-04-17T10:38:53.319Z,13.36
2023-04-17T10:40:56.207Z,13.39
2023-04-17T10:43:12.170Z,13.42
2023-04-17T10:45:19.311Z,13.32
2023-04-17T10:47:22.921Z,13.23
2023-04-17T10:49:25.938Z,13.24
2023-04-17T10:51:42.017Z,13.35
2023-04-17T10:53:45.957Z,13.27
2023-04-17T10:55:50.232Z,13.30
2023-04-17T10:57:54.971Z,13.30
2023-04-17T11:00:13.117Z,13.23
2023-04-17T11:02:17.794Z,13.23
2023-04-17T11:04:21.352Z,13.20
2023-04-17T11:06:28.812Z,13.35
2023-04-17T11:08:31.746Z,13.38
2023-04-17T11:10:37.070Z,13.37
2023-04-17T11:12:39.982Z,13.38
2023-04-17T11:14:43.656Z,13.41
2023-04-17T11:16:48.122Z,13.48
2023-04-17T11:18:52.360Z,13.49
2023-04-17T11:20:55.488Z,13.63
2023-04-17T11:23:01.624Z,13.61
2023-04-17T11:25:04.747Z,13.53
2023-04-17T11:27:08.054Z,13.51
2023-04-17T11:29:15.410Z,13.73
2023-04-17T11:31:19.769Z,13.99
2023-04-17T11:33:23.768Z,14.02
2023-04-17T11:35:32.785Z,14.12
2023-04-17T11:37:35.782Z,14.10
2023-04-17T11:39:43.957Z,14.16
2023-04-17T11:41:47.462Z,14.22
2023-04-17T11:43:52.430Z,14.33
2023-04-17T11:45:56.940Z,14.46
2023-04-17T11:47:59.857Z,14.57
2023-04-17T11:50:03.337Z,14.51
2023-04-17T11:52:07.626Z,14.58
2023-04-17T11:54:10.670Z,14.60
2023-04-17T11:56:15.826Z,14.61
2023-04-17T11:58:18.716Z,14.57
2023-04-17T12:00:27.341Z,14.60
2023-04-17T12:02:34.145Z,14.61
2023-04-17T12:04:38.284Z,14.76
2023-04-17T12:06:41.251Z,14.86
2023-04-17T12:08:50.126Z,14.92
2023-04-17T12:10:53.115Z,15.05
2023-04-17T12:12:56.570Z,14.94
2023-04-17T12:15:00.794Z,15.09
2023-04-17T12:17:03.619Z,15.04
2023-04-17T12:19:07.695Z,14.94
2023-04-17T12:21:10.809Z,14.84
2023-04-17T12:23:13.693Z,14.59
2023-04-17T12:25:17.820Z,14.41
2023-04-17T12:27:21.504Z,14.53
2023-04-17T12:29:36.897Z,14.52
2023-04-17T12:31:46.699Z,14.60
2023-04-17T12:33:49.865Z,14.70
2023-04-17T12:35:52.816Z,14.77
2023-04-17T12:37:55.798Z,14.84
2023-04-17T12:39:59.414Z,15.08
2023-04-17T12:42:03.544Z,15.14
2023-04-17T12:44:06.916Z,15.21
2023-04-17T12:46:09.775Z,15.28
2023-04-17T12:48:13.657Z,15.02
2023-04-17T12:50:16.494Z,14.90
2023-04-17T12:52:19.310Z,14.88
2023-04-17T12:54:22.120Z,14.68
2023-04-17T12:56:25.083Z,14.65
2023-04-17T12:58:29.249Z,14.57
2023-04-17T13:00:32.658Z,14.56
2023-04-17T13:02:35.862Z,14.50
2023-04-17T13:04:39.265Z,14.46
2023-04-17T13:06:42.532Z,14.28
2023-04-17T13:08:45.251Z,14.26
2023-04-17T13:10:48.017Z,14.32
2023-04-17T13:12:52.069Z,14.39
2023-04-17T13:14:57.503Z,14.31
2023-04-17T13:17:00.969Z,14.23
2023-04-17T13:19:03.798Z,14.15
2023-04-17T13:21:07.649Z,14.04
2023-04-17T13:23:11.804Z,13.98
2023-04-17T13:25:14.676Z,14.06
2023-04-17T13:27:17.460Z,14.11
2023-04-17T13:29:20.405Z,14.13
2023-04-17T13:31:26.662Z,14.14
2023-04-17T13:33:29.591Z,14.06
2023-04-17T13:35:34.144Z,13.99
2023-04-17T13:37:36.953Z,13.96
2023-04-17T13:39:39.788Z,13.96
2023-04-17T13:41:43.003Z,13.92
2023-04-17T13:43:45.897Z,13.94
2023-04-17T13:45:49.589Z,13.86
2023-04-17T13:47:54.065Z,13.86
2023-04-17T13:49:56.968Z,13.96
2023-04-17T13:51:59.761Z,13.86
2023-04-17T13:54:02.789Z,13.87
2023-04-17T13:56:06.209Z,13.96
2023-04-17T13:58:09.078Z,14.04
2023-04-17T14:00:13.076Z,14.15
2023-04-17T14:02:16.001Z,14.09
2023-04-17T14:04:20.479Z,14.09
2023-04-17T14:06:23.466Z,14.12
2023-04-17T14:08:27.056Z,14.03
2023-04-17T14:10:29.891Z,14.04
2023-04-17T14:12:32.736Z,14.10
2023-04-17T14:14:35.542Z,14.10
2023-04-17T14:16:38.355Z,14.13
2023-04-17T14:18:41.098Z,14.13
2023-04-17T14:20:45.322Z,14.11
2023-04-17T14:22:48.218Z,14.23
2023-04-17T14:24:51.057Z,14.21
2023-04-17T14:26:53.909Z,14.18
2023-04-17T14:28:56.821Z,14.19
2023-04-17T14:30:59.648Z,14.20
2023-04-17T14:33:02.739Z,14.24
2023-04-17T14:35:06.411Z,14.39
2023-04-17T14:37:10.658Z,14.34
2023-04-17T14:39:13.689Z,14.45
2023-04-17T14:41:16.781Z,14.42
2023-04-17T14:43:19.709Z,14.52
2023-04-17T14:45:22.554Z,14.44
2023-04-17T14:47:25.988Z,14.50
2023-04-17T14:49:30.265Z,14.42
2023-04-17T14:51:33.082Z,14.45
2023-04-17T14:53:37.243Z,14.49
2023-04-17T14:55:40.154Z,14.52
2023-04-17T14:57:43.219Z,14.57
2023-04-17T14:59:46.122Z,14.62
2023-04-17T15:01:48.960Z,14.55
2023-04-17T15:03:52.206Z,14.44
2023-04-17T15:05:56.674Z,14.36
2023-04-17T15:07:59.459Z,14.39
2023-04-17T15:10:03.988Z,14.46
2023-04-17T15:12:07.132Z,14.37
2023-04-17T15:14:10.189Z,14.31
2023-04-17T15:16:12.998Z,14.34
2023-04-17T15:18:15.843Z,14.29
2023-04-17T15:20:22.216Z,14.25
2023-04-17T15:22:25.261Z,14.58
2023-04-17T15:24:28.064Z,14.35
2023-04-17T15:26:33.082Z,14.33
2023-04-17T15:28:36.917Z,14.34
2023-04-17T15:30:39.738Z,14.24
2023-04-17T15:32:42.692Z,14.39
2023-04-17T15:34:45.601Z,14.21
2023-04-17T15:36:48.389Z,14.23
2023-04-17T15:38:51.142Z,14.31
2023-04-17T15:40:54.356Z,14.30
2023-04-17T15:42:58.553Z,14.34
2023-04-17T15:45:01.815Z,14.34
2023-04-17T15:47:05.590Z,14.35
2023-04-17T15:49:09.354Z,14.27
2023-04-17T15:51:13.771Z,14.25
2023-04-17T15:53:16.583Z,14.11
2023-04-17T15:55:19.672Z,14.08
2023-04-17T15:57:22.528Z,14.18
2023-04-17T15:59:26.767Z,14.18
2023-04-17T16:01:29.637Z,14.03
2023-04-17T16:03:32.574Z,14.10
2023-04-17T16:05:35.589Z,14.21
2023-04-17T16:07:38.366Z,14.20
2023-04-17T16:09:44.434Z,14.12
2023-04-17T16:11:48.409Z,14.05
2023-04-17T16:13:51.171Z,13.94
2023-04-17T16:15:55.420Z,13.82
2023-04-17T16:17:58.301Z,13.94
2023-04-17T16:20:01.074Z,13.99
2023-04-17T16:22:03.981Z,14.03
2023-04-17T16:24:06.972Z,13.95
2023-04-17T16:26:09.824Z,13.94
2023-04-17T16:28:12.726Z,13.90
2023-04-17T16:30:16.224Z,13.84
2023-04-17T16:32:20.786Z,13.91
2023-04-17T16:34:23.697Z,14.17
2023-04-17T16:36:27.242Z,14.02
2023-04-17T16:38:30.078Z,14.07
2023-04-17T16:40:32.906Z,13.98
2023-04-17T16:42:35.815Z,13.79
2023-04-17T16:44:38.652Z,13.84
2023-04-17T16:47:03.067Z,13.87
2023-04-17T16:49:09.958Z,13.72
2023-04-17T16:51:44.786Z,13.77
2023-04-17T16:53:47.772Z,13.76
2023-04-17T16:55:50.644Z,13.58
2023-04-17T16:57:54.476Z,13.59
2023-04-17T16:59:57.271Z,13.59
2023-04-17T17:02:02.328Z,13.61
2023-04-17T17:04:07.169Z,13.34
2023-04-17T17:06:10.221Z,13.32
2023-04-17T17:08:14.459Z,13.28
2023-04-17T17:10:17.226Z,13.28
2023-04-17T17:12:20.191Z,13.38
2023-04-17T17:14:23.197Z,13.36
2023-04-17T17:16:26.356Z,13.21
2023-04-17T17:18:29.173Z,13.22
2023-04-17T17:20:33.265Z,13.33
2023-04-17T17:22:36.163Z,13.46
2023-04-17T17:24:39.721Z,13.39
2023-04-17T17:26:42.530Z,13.34
2023-04-17T17:28:50.769Z,13.36
2023-04-17T17:30:59.423Z,13.38
2023-04-17T17:33:02.367Z,13.30
2023-04-17T17:35:05.832Z,13.26
2023-04-17T17:37:13.008Z,13.24
2023-04-17T17:39:16.368Z,13.23
2023-04-17T17:41:21.187Z,13.18
2023-04-17T17:43:24.225Z,13.15
2023-04-17T17:45:27.020Z,13.20
2023-04-17T17:47:29.954Z,13.21
2023-04-17T17:49:32.895Z,13.33
2023-04-17T17:51:35.675Z,13.34
2023-04-17T17:53:40.988Z,13.17
2023-04-17T17:55:43.775Z,13.04
2023-04-17T17:57:49.459Z,13.07
2023-04-17T17:59:52.741Z,13.12
2023-04-17T18:01:55.788Z,13.11
2023-04-17T18:03:59.020Z,13.11
2023-04-17T18:06:02.125Z,13.16
2023-04-17T18:08:04.889Z,13.16
2023-04-17T18:10:10.354Z,13.14
2023-04-17T18:12:13.442Z,13.11
2023-04-17T18:14:16.249Z,13.14
2023-04-17T18:16:19.218Z,13.12
2023-04-17T18:18:22.121Z,13.10
2023-04-17T18:20:24.923Z,13.11
2023-04-17T18:22:27.690Z,13.14
2023-04-17T18:24:31.762Z,13.15
2023-04-17T18:26:36.058Z,13.19
2023-04-17T18:28:38.815Z,13.16
2023-04-17T18:30:42.306Z,13.16
2023-04-17T18:32:45.231Z,13.13
2023-04-17T18:34:49.126Z,13.13
2023-04-17T18:36:52.190Z,13.21
2023-04-17T18:38:54.949Z,13.16
2023-04-17T18:41:01.047Z,13.16
2023-04-17T18:43:06.074Z,13.21
2023-04-17T18:45:13.513Z,13.07
2023-04-17T18:47:16.397Z,13.09
2023-04-17T18:49:19.321Z,13.10
2023-04-17T18:51:22.052Z,13.04
2023-04-17T18:53:25.027Z,12.99
2023-04-17T18:55:27.793Z,13.02
2023-04-17T18:57:30.619Z,12.99
2023-04-17T18:59:34.741Z,13.06
2023-04-17T19:01:38.014Z,13.08
2023-04-17T19:03:40.801Z,13.00
2023-04-17T19:05:43.669Z,12.95
2023-04-17T19:07:46.508Z,12.91
2023-04-17T19:09:49.416Z,12.91
2023-04-17T19:11:52.315Z,12.88
2023-04-17T19:13:55.346Z,12.92
2023-04-17T19:15:59.681Z,12.85
2023-04-17T19:18:02.474Z,12.88
2023-04-17T19:20:06.471Z,12.92
2023-04-17T19:22:09.278Z,12.97
2023-04-17T19:24:12.073Z,12.88
2023-04-17T19:26:15.707Z,12.87
2023-04-17T19:28:18.602Z,12.79
2023-04-17T19:30:21.542Z,12.82
2023-04-17T19:32:25.858Z,12.83
2023-04-17T19:34:28.864Z,12.81
2023-04-17T19:36:31.657Z,12.84
2023-04-17T19:38:34.910Z,12.84
2023-04-17T19:40:37.859Z,12.79
2023-04-17T19:42:40.755Z,12.78
2023-04-17T19:44:43.596Z,12.79
2023-04-17T19:46:46.468Z,12.83
2023-04-17T19:48:52.208Z,12.81
2023-04-17T19:50:55.100Z,12.90
2023-04-17T19:52:58.943Z,12.92
2023-04-17T19:55:01.822Z,12.86
2023-04-17T19:57:04.927Z,12.83
2023-04-17T19:59:12.300Z,12.85
2023-04-17T20:01:15.830Z,12.82
2023-04-17T20:03:18.752Z,12.81
2023-04-17T20:05:22.985Z,12.82
2023-04-17T20:07:25.766Z,12.84
2023-04-17T20:09:28.545Z,12.84
2023-04-17T20:11:31.609Z,12.77
2023-04-17T20:13:34.823Z,12.73
2023-04-17T20:15:37.679Z,12.71
2023-04-17T20:17:40.595Z,12.74
2023-04-17T20:19:43.354Z,12.74
2023-04-17T20:21:47.856Z,12.72
2023-04-17T20:23:50.676Z,12.70
2023-04-17T20:25:53.526Z,12.71
2023-04-17T20:27:56.599Z,12.72
2023-04-17T20:29:59.491Z,12.76
2023-04-17T20:32:03.914Z,12.77
2023-04-17T20:34:06.835Z,12.61
2023-04-17T20:36:09.741Z,12.65
2023-04-17T20:38:14.061Z,12.64
2023-04-17T20:40:16.946Z,12.66
2023-04-17T20:42:19.844Z,12.69
2023-04-17T20:44:22.643Z,12.65
2023-04-17T20:46:25.644Z,12.66
2023-04-17T20:48:28.589Z,12.71
2023-04-17T20:50:31.536Z,12.69
2023-04-17T20:52:34.586Z,12.70
2023-04-17T20:54:38.701Z,12.66
2023-04-17T20:56:41.508Z,12.66
2023-04-17T20:58:44.280Z,12.67
2023-04-17T21:00:58.228Z,12.65
2023-04-17T21:03:05.074Z,12.63
2023-04-17T21:05:08.415Z,12.71
2023-04-17T21:07:11.533Z,12.71
2023-04-17T21:09:16.240Z,12.64
2023-04-17T21:11:21.356Z,12.55
2023-04-17T21:13:24.568Z,12.57
2023-04-17T21:15:27.524Z,12.51
2023-04-17T21:17:30.426Z,12.52
2023-04-17T21:19:36.335Z,12.53
2023-04-17T21:21:39.204Z,12.50
2023-04-17T21:23:42.012Z,12.46
2023-04-17T21:25:44.860Z,12.52
2023-04-17T21:27:49.135Z,12.45
2023-04-17T21:29:51.979Z,12.51
2023-04-17T21:31:54.997Z,12.46
2023-04-17T21:33:57.857Z,12.48
2023-04-17T21:36:00.713Z,12.42
2023-04-17T21:38:03.644Z,12.49
2023-04-17T21:40:07.627Z,12.46
2023-04-17T21:42:10.856Z,12.37
2023-04-17T21:44:17.341Z,12.43
2023-04-17T21:46:20.241Z,12.47
2023-04-17T21:48:23.440Z,12.33
2023-04-17T21:50:26.241Z,12.33
2023-04-17T21:52:29.030Z,12.30
2023-04-17T21:54:31.851Z,12.28
2023-04-17T21:56:34.613Z,12.33
2023-04-17T21:58:37.360Z,12.23
2023-04-17T22:00:41.589Z,12.27
2023-04-17T22:02:44.571Z,12.33
2023-04-17T22:04:47.497Z,12.29
2023-04-17T22:06:51.637Z,12.26
2023-04-17T22:08:54.424Z,12.25
2023-04-17T22:10:57.207Z,12.23
2023-04-17T22:13:00.016Z,12.26
2023-04-17T22:15:02.931Z,12.21
2023-04-17T22:17:07.923Z,12.18
2023-04-17T22:19:10.773Z,12.19
2023-04-17T22:21:13.809Z,12.12
2023-04-17T22:23:16.625Z,12.07
2023-04-17T22:25:20.853Z,12.11
2023-04-17T22:27:23.961Z,12.12
2023-04-17T22:29:26.768Z,12.20
2023-04-17T22:31:29.687Z,12.26
2023-04-17T22:33:33.882Z,12.09
2023-04-17T22:35:36.764Z,12.13
2023-04-17T22:37:39.521Z,12.04
2023-04-17T22:39:42.392Z,12.08
2023-04-17T22:41:45.161Z,12.05
2023-04-17T22:43:49.262Z,12.00
2023-04-17T22:45:52.427Z,11.97
2023-04-17T22:47:55.390Z,12.03
2023-04-17T22:49:59.803Z,12.10
2023-04-17T22:52:02.667Z,12.00
2023-04-17T22:54:15.161Z,12.09
2023-04-17T22:56:22.374Z,11.99
2023-04-17T22:58:25.211Z,11.96
2023-04-17T23:00:28.100Z,11.95
2023-04-17T23:02:30.975Z,12.03
2023-04-17T23:04:33.875Z,11.96
2023-04-17T23:06:38.159Z,12.02
2023-04-17T23:08:40.939Z,11.96
2023-04-17T23:10:43.745Z,11.96
2023-04-17T23:12:46.559Z,11.93
2023-04-17T23:14:49.297Z,11.91
2023-04-17T23:16:52.810Z,11.87
2023-04-17T23:18:55.622Z,11.79
2023-04-17T23:20:58.426Z,11.84
2023-04-17T23:23:02.540Z,11.83
2023-04-17T23:25:05.953Z,11.93
2023-04-17T23:27:08.754Z,11.82
2023-04-17T23:29:11.712Z,11.79
2023-04-17T23:31:14.577Z,11.85
2023-04-17T23:33:17.429Z,11.86
2023-04-17T23:35:20.972Z,11.84
2023-04-17T23:37:23.760Z,11.86
2023-04-17T23:39:27.866Z,11.93
2023-04-17T23:41:33.604Z,11.85
2023-04-17T23:43:39.142Z,11.75
2023-04-17T23:45:41.985Z,11.69
2023-04-17T23:47:45.918Z,11.68
2023-04-17T23:49:48.688Z,11.85
2023-04-17T23:51:51.527Z,11.78
2023-04-17T23:53:54.456Z,11.68
2023-04-17T23:55:58.574Z,11.70
2023-04-17T23:58:01.366Z,11.60
